»·PEaware :: N520MP KSAC-KMRY

N520MP :: KSAC-KMRY

FLIGHT INFORMATION

Flight Status: Arrived
Operator: Privately registered:
United States
More flights under this callsign
Pilot: Manuel P. (9695)
Aircraft: CANADAIR CL-600 CRJ-200
(CRJ2)
More flights by this aircraft type
Origin: KSAC Sacramento Executive
United States
Destination: KMRY Monterey Peninsula
United States
More flights between these airports :: More routes between these airports
Route: MOD V111 SNS
File this flight plan on PilotEdge
Remarks:
Altitude:
(Current/Filed)
17,000ft
Speed:
(Current/Filed)
400kts
Departed: 12-Sep-17 02:54 PM
Arrived: 12-Sep-17 03:23 PM
Distance/Time
Traveled:
117nm/0:29
Distance/Time
To Go:
Arrived

Flight Plot

Page will automatically refresh every two minutes.

Flight plan parsing failed; only flown route is shown


Map Options




Map Legend


Flown Route
Filed Route
Departure Airport
Arrival Airport
Navaid (VOR, NDB)
Fix

Horizontal Profiles

Position Reports

Time Latitude Longitude Heading Altitude Ground
Speed
12-Sep-17 14:38 38.514736 -121.499241 223 28ft 0kts
12-Sep-17 14:39 38.514736 -121.499241 223 28ft 0kts
12-Sep-17 14:40 38.514736 -121.499241 223 28ft 0kts
12-Sep-17 14:41 38.514736 -121.499241 223 28ft 0kts
12-Sep-17 14:42 38.514736 -121.499241 223 28ft 0kts
12-Sep-17 14:43 38.514736 -121.499241 223 28ft 0kts
12-Sep-17 14:44 38.514736 -121.499241 223 28ft 0kts
12-Sep-17 14:45 38.514736 -121.499241 223 28ft 0kts
12-Sep-17 14:46 38.514736 -121.499241 223 28ft 0kts
12-Sep-17 14:47 38.514736 -121.499241 223 28ft 0kts
12-Sep-17 14:48 38.514736 -121.499241 223 28ft 0kts
12-Sep-17 14:49 38.514736 -121.499241 223 28ft 0kts
12-Sep-17 14:50 38.514727 -121.499259 237 28ft 0kts
12-Sep-17 14:51 38.514574 -121.498404 134 28ft 6kts
12-Sep-17 14:52 38.513592 -121.496073 98 28ft 4kts
12-Sep-17 14:53 38.514538 -121.494651 32 28ft 0kts
12-Sep-17 14:54 38.514544 -121.494646 31 28ft 0kts
12-Sep-17 14:55 38.516417 -121.493093 33 28ft 9kts
12-Sep-17 14:56 38.518753 -121.491147 33 28ft 9kts
12-Sep-17 14:57 38.518837 -121.489507 182 28ft 6kts
12-Sep-17 14:58 38.499612 -121.503597 190 623ft 170kts
12-Sep-17 14:59 38.452661 -121.465424 143 2138ft 225kts
12-Sep-17 15:00 38.401918 -121.418247 159 3344ft 246kts
12-Sep-17 15:01 38.335322 -121.379839 153 5081ft 283kts
12-Sep-17 15:02 38.264767 -121.337557 152 7823ft 280kts
12-Sep-17 15:03 38.194911 -121.295427 152 9768ft 297kts
12-Sep-17 15:04 38.111590 -121.245502 153 11000ft 343kts
12-Sep-17 15:05 38.025708 -121.194189 153 13127ft 348kts
12-Sep-17 15:06 37.937695 -121.141721 154 15117ft 355kts
12-Sep-17 15:07 37.848686 -121.088806 154 16721ft 363kts
12-Sep-17 15:08 37.758578 -121.035408 154 17003ft 354kts
12-Sep-17 15:09 37.667961 -120.981862 154 16992ft 375kts
12-Sep-17 15:10 37.563663 -121.002556 203 16983ft 414kts
12-Sep-17 15:11 37.459886 -121.071439 205 17284ft 423kts
12-Sep-17 15:12 37.359130 -121.139432 205 15202ft 407kts
12-Sep-17 15:13 37.260685 -121.205677 205 12712ft 401kts
12-Sep-17 15:14 37.164790 -121.270011 205 10206ft 381kts
12-Sep-17 15:15 37.078634 -121.327725 204 9956ft 337kts
12-Sep-17 15:16 36.997507 -121.381863 204 9860ft 319kts
12-Sep-17 15:17 36.925285 -121.429846 205 8046ft 290kts
12-Sep-17 15:18 36.854914 -121.476349 206 6094ft 288kts
12-Sep-17 15:19 36.789118 -121.518551 206 5986ft 251kts
12-Sep-17 15:20 36.726678 -121.558370 205 4439ft 253kts
12-Sep-17 15:21 36.667639 -121.589720 207 2583ft 210kts
12-Sep-17 15:22 36.624468 -121.629592 240 1609ft 189kts
12-Sep-17 15:23 36.610343 -121.685233 271 1778ft 159kts
12-Sep-17 15:24 36.597603 -121.741399 243 2486ft 176kts
12-Sep-17 15:25 36.579501 -121.788895 259 1360ft 138kts
12-Sep-17 15:26 36.582349 -121.830280 288 305ft 112kts
12-Sep-17 15:27 36.588887 -121.850014 285 260ft 9kts
12-Sep-17 15:28 36.588863 -121.852412 281 260ft 4kts

Navigation Log

Ident Type
Flight plan parsing failed, navigation log unavailable